createdAt,value
2018-03-07T00:00:25.993Z,59.90
2018-03-07T00:02:55.109Z,63.20
2018-03-07T00:05:22.761Z,63.83
2018-03-07T00:07:50.974Z,59.30
2018-03-07T00:10:20.054Z,60.43
2018-03-07T00:12:48.711Z,59.83
2018-03-07T00:15:17.046Z,61.77
2018-03-07T00:17:44.709Z,60.63
2018-03-07T00:20:13.558Z,65.03
2018-03-07T00:22:42.010Z,60.90
2018-03-07T00:25:10.481Z,63.57
2018-03-07T00:27:39.040Z,63.30
2018-03-07T00:30:06.743Z,65.60
2018-03-07T00:32:34.457Z,64.37
2018-03-07T00:35:02.195Z,63.20
2018-03-07T00:37:30.498Z,60.63
2018-03-07T00:39:58.188Z,64.60
2018-03-07T00:42:26.694Z,65.23
2018-03-07T00:44:57.291Z,66.03
2018-03-07T00:47:24.979Z,63.13
2018-03-07T00:49:54.141Z,63.90
2018-03-07T00:52:21.813Z,64.30
2018-03-07T00:54:51.539Z,59.73
2018-03-07T00:57:21.514Z,61.70
2018-03-07T00:59:49.226Z,55.57
2018-03-07T01:02:16.936Z,61.57
2018-03-07T01:04:44.630Z,63.23
2018-03-07T01:07:12.934Z,63.23
2018-03-07T01:09:41.581Z,61.33
2018-03-07T01:12:11.362Z,60.13
2018-03-07T01:14:38.961Z,61.83
2018-03-07T01:17:06.774Z,60.33
2018-03-07T01:19:34.490Z,59.83
2018-03-07T01:22:02.300Z,57.50
2018-03-07T01:24:31.039Z,59.97
2018-03-07T01:26:59.486Z,57.73
2018-03-07T01:29:28.618Z,59.10
2018-03-07T01:31:56.695Z,61.80
2018-03-07T01:34:24.388Z,56.77
2018-03-07T01:36:52.082Z,57.77
2018-03-07T01:39:19.997Z,55.23
2018-03-07T01:41:48.707Z,56.37
2018-03-07T01:44:16.510Z,55.17
2018-03-07T01:46:45.455Z,58.77
2018-03-07T01:49:13.256Z,58.50
2018-03-07T01:51:52.602Z,55.33
2018-03-07T01:54:22.356Z,62.77
2018-03-07T01:56:50.779Z,63.87
2018-03-07T01:59:18.495Z,58.00
2018-03-07T02:01:46.992Z,55.50
2018-03-07T02:04:14.831Z,59.27
2018-03-07T02:06:43.287Z,51.77
2018-03-07T02:09:11.564Z,53.27
2018-03-07T02:11:40.115Z,53.53
2018-03-07T02:14:08.491Z,56.27
2018-03-07T02:16:36.757Z,58.00
2018-03-07T02:19:05.063Z,56.23
2018-03-07T02:21:32.783Z,57.17
2018-03-07T02:24:02.781Z,55.30
2018-03-07T02:26:30.464Z,53.40
2018-03-07T02:29:00.240Z,53.60
2018-03-07T02:31:28.897Z,52.83
2018-03-07T02:33:58.387Z,54.73
2018-03-07T02:36:34.823Z,50.80
2018-03-07T02:39:03.210Z,53.80
2018-03-07T02:41:31.837Z,52.70
2018-03-07T02:44:01.785Z,53.30
2018-03-07T02:46:31.255Z,52.27
2018-03-07T02:48:58.988Z,52.77
2018-03-07T02:51:27.242Z,50.80
2018-03-07T02:53:55.080Z,51.33
2018-03-07T02:56:23.147Z,54.47
2018-03-07T02:58:50.784Z,53.97
2018-03-07T03:01:19.457Z,52.97
2018-03-07T03:03:47.665Z,52.47
2018-03-07T03:06:15.392Z,56.23
2018-03-07T03:08:43.893Z,56.50
2018-03-07T03:11:12.404Z,59.87
2018-03-07T03:13:40.034Z,56.73
2018-03-07T03:16:08.526Z,57.50
2018-03-07T03:18:37.091Z,58.60
2018-03-07T03:21:05.776Z,55.87
2018-03-07T03:23:34.079Z,55.40
2018-03-07T03:26:01.749Z,58.50
2018-03-07T03:28:30.204Z,56.60
2018-03-07T03:30:57.915Z,53.20
2018-03-07T03:33:25.655Z,55.63
2018-03-07T03:35:53.447Z,57.43
2018-03-07T03:38:21.266Z,62.20
2018-03-07T03:40:49.743Z,60.37
2018-03-07T03:43:19.354Z,60.43
2018-03-07T03:45:47.031Z,61.27
2018-03-07T03:48:14.739Z,58.80
2018-03-07T03:50:43.290Z,59.73
2018-03-07T03:53:12.896Z,60.60
2018-03-07T03:55:42.662Z,58.50
2018-03-07T03:58:10.446Z,56.30
2018-03-07T04:00:38.750Z,57.83
2018-03-07T04:03:09.397Z,55.87
2018-03-07T04:05:37.637Z,55.87
2018-03-07T04:08:05.430Z,55.63
2018-03-07T04:10:33.475Z,55.53
2018-03-07T04:13:01.615Z,56.17
2018-03-07T04:15:31.545Z,56.00
2018-03-07T04:18:00.748Z,55.00
2018-03-07T04:20:28.392Z,51.23
2018-03-07T04:22:56.796Z,51.63
2018-03-07T04:25:24.498Z,50.53
2018-03-07T04:27:52.190Z,49.97
2018-03-07T04:30:21.415Z,51.13
2018-03-07T04:32:50.060Z,50.23
2018-03-07T04:35:19.323Z,50.97
2018-03-07T04:37:47.993Z,49.60
2018-03-07T04:40:16.539Z,54.03
2018-03-07T04:42:44.558Z,54.23
2018-03-07T04:45:13.340Z,52.53
2018-03-07T04:47:43.002Z,49.17
2018-03-07T04:50:13.538Z,54.77
2018-03-07T04:52:44.025Z,50.30
2018-03-07T04:55:11.733Z,48.77
2018-03-07T04:57:41.153Z,45.73
2018-03-07T05:00:08.775Z,49.20
2018-03-07T05:02:37.281Z,47.43
2018-03-07T05:05:05.046Z,48.20
2018-03-07T05:07:32.786Z,48.17
2018-03-07T05:10:02.090Z,49.73
2018-03-07T05:12:33.393Z,46.73
2018-03-07T05:15:02.560Z,49.63
2018-03-07T05:17:30.288Z,46.10
2018-03-07T05:19:59.184Z,45.03
2018-03-07T05:22:26.850Z,47.60
2018-03-07T05:24:54.571Z,48.27
2018-03-07T05:27:22.684Z,47.43
2018-03-07T05:29:50.377Z,48.50
2018-03-07T05:32:18.761Z,43.27
2018-03-07T05:34:46.448Z,43.23
2018-03-07T05:37:14.202Z,48.67
2018-03-07T05:39:42.692Z,46.20
2018-03-07T05:42:10.361Z,50.43
2018-03-07T05:44:38.376Z,53.53
2018-03-07T05:47:08.091Z,47.83
2018-03-07T05:49:36.669Z,48.23
2018-03-07T05:52:05.275Z,49.20
2018-03-07T05:54:34.123Z,49.43
2018-03-07T05:57:02.794Z,47.27
2018-03-07T05:59:32.250Z,45.40
2018-03-07T06:01:59.994Z,45.90
2018-03-07T06:04:27.743Z,42.27
2018-03-07T06:06:57.269Z,41.27
2018-03-07T06:09:25.644Z,44.17
2018-03-07T06:11:53.327Z,39.67
2018-03-07T06:14:21.460Z,43.10
2018-03-07T06:16:49.118Z,34.87
2018-03-07T06:19:18.978Z,34.03
2018-03-07T06:21:47.612Z,36.83
2018-03-07T06:24:15.380Z,30.70
2018-03-07T06:26:44.521Z,36.40
2018-03-07T06:29:12.332Z,33.80
2018-03-07T06:31:40.591Z,33.60
2018-03-07T06:34:09.834Z,32.07
2018-03-07T06:36:42.491Z,32.57
2018-03-07T06:39:10.225Z,33.43
2018-03-07T06:41:38.699Z,30.53
2018-03-07T06:44:07.614Z,28.67
2018-03-07T06:46:35.356Z,27.80
2018-03-07T06:49:03.617Z,26.07
2018-03-07T06:51:32.219Z,30.57
2018-03-07T06:54:01.254Z,28.90
2018-03-07T06:56:29.478Z,25.80
2018-03-07T06:58:57.123Z,29.43
2018-03-07T07:01:24.888Z,25.07
2018-03-07T07:03:53.628Z,18.00
2018-03-07T07:06:24.777Z,22.47
2018-03-07T07:08:53.126Z,28.43
2018-03-07T07:11:20.835Z,25.63
2018-03-07T07:13:50.314Z,26.60
2018-03-07T07:16:18.065Z,26.20
2018-03-07T07:18:46.597Z,26.20
2018-03-07T07:21:15.070Z,24.77
2018-03-07T07:23:42.839Z,24.20
2018-03-07T07:26:13.687Z,26.17
2018-03-07T07:28:41.354Z,25.23
2018-03-07T07:31:09.057Z,26.93
2018-03-07T07:33:37.019Z,25.73
2018-03-07T07:36:07.326Z,19.47
2018-03-07T07:38:36.721Z,26.40
2018-03-07T07:41:10.331Z,26.07
2018-03-07T07:43:40.629Z,24.43
2018-03-07T07:46:11.085Z,24.40
2018-03-07T07:48:39.748Z,23.37
2018-03-07T07:51:07.391Z,25.83
2018-03-07T07:53:35.801Z,26.53
2018-03-07T07:56:03.519Z,22.33
2018-03-07T07:58:31.842Z,23.83
2018-03-07T08:01:01.819Z,23.63
2018-03-07T08:03:30.251Z,22.87
2018-03-07T08:05:58.044Z,22.53
2018-03-07T08:08:26.236Z,20.80
2018-03-07T08:10:53.922Z,19.23
2018-03-07T08:13:23.242Z,20.83
2018-03-07T08:15:52.536Z,21.90
2018-03-07T08:18:22.003Z,18.40
2018-03-07T08:20:49.756Z,20.13
2018-03-07T08:23:17.421Z,21.13
2018-03-07T08:25:45.117Z,18.93
2018-03-07T08:28:12.848Z,19.93
2018-03-07T08:30:41.237Z,20.00
2018-03-07T08:33:08.900Z,17.43
2018-03-07T08:35:38.324Z,16.90
2018-03-07T08:38:09.054Z,17.00
2018-03-07T08:40:37.445Z,16.53
2018-03-07T08:43:06.555Z,14.83
2018-03-07T08:45:34.848Z,16.27
2018-03-07T08:48:03.312Z,15.23
2018-03-07T08:50:31.890Z,14.83
2018-03-07T08:53:00.972Z,11.13
2018-03-07T08:55:29.750Z,14.90
2018-03-07T08:57:58.043Z,14.13
2018-03-07T09:00:26.750Z,11.90
2018-03-07T09:02:55.323Z,14.23
2018-03-07T09:05:24.343Z,15.17
2018-03-07T09:07:52.070Z,16.13
2018-03-07T09:10:19.864Z,15.37
2018-03-07T09:12:48.562Z,15.23
2018-03-07T09:15:17.389Z,15.47
2018-03-07T09:17:45.823Z,14.70
2018-03-07T09:20:15.071Z,14.13
2018-03-07T09:22:44.729Z,15.47
2018-03-07T09:25:13.057Z,14.57
2018-03-07T09:27:42.148Z,13.97
2018-03-07T09:30:11.624Z,14.37
2018-03-07T09:32:39.462Z,12.67
2018-03-07T09:35:08.122Z,12.73
2018-03-07T09:37:35.884Z,12.20
2018-03-07T09:40:03.610Z,14.20
2018-03-07T09:42:31.329Z,13.30
2018-03-07T09:44:59.876Z,11.83
2018-03-07T09:47:28.484Z,12.10
2018-03-07T09:49:56.710Z,12.40
2018-03-07T09:52:25.373Z,12.43
2018-03-07T09:54:54.133Z,12.00
2018-03-07T09:57:22.651Z,11.57
2018-03-07T09:59:52.782Z,11.68
2018-03-07T10:02:21.643Z,12.55
2018-03-07T10:04:50.758Z,12.20
2018-03-07T10:07:18.679Z,12.07
2018-03-07T10:09:46.358Z,12.10
2018-03-07T10:12:14.076Z,11.37
2018-03-07T10:14:43.358Z,11.57
2018-03-07T10:17:12.867Z,12.60
2018-03-07T10:19:42.148Z,11.57
2018-03-07T10:22:09.916Z,10.83
2018-03-07T10:24:37.653Z,11.03
2018-03-07T10:27:06.060Z,11.20
2018-03-07T10:29:33.742Z,11.20
2018-03-07T10:32:01.599Z,10.10
2018-03-07T10:34:29.973Z,10.47
2018-03-07T10:36:57.708Z,11.03
2018-03-07T10:39:26.363Z,11.90
2018-03-07T10:41:54.934Z,11.77
2018-03-07T10:44:22.654Z,11.70
2018-03-07T10:46:51.215Z,10.87
2018-03-07T10:49:20.225Z,10.20
2018-03-07T10:51:48.010Z,10.60
2018-03-07T10:54:17.570Z,9.83
2018-03-07T10:56:45.993Z,8.73
2018-03-07T10:59:13.977Z,10.37
2018-03-07T11:01:42.498Z,9.10
2018-03-07T11:04:10.268Z,9.17
2018-03-07T11:06:38.761Z,7.60
2018-03-07T11:09:07.341Z,8.90
2018-03-07T11:11:35.093Z,7.80
2018-03-07T11:14:03.781Z,9.97
2018-03-07T11:16:31.424Z,8.37
2018-03-07T11:18:59.085Z,6.73
2018-03-07T11:21:29.397Z,7.03
2018-03-07T11:23:57.011Z,8.60
2018-03-07T11:26:24.763Z,8.27
2018-03-07T11:28:53.141Z,7.80
2018-03-07T11:31:21.662Z,8.93
2018-03-07T11:33:50.095Z,8.07
2018-03-07T11:36:17.722Z,7.73
2018-03-07T11:38:45.387Z,7.33
2018-03-07T11:41:12.917Z,8.03
2018-03-07T11:43:41.216Z,8.00
2018-03-07T11:46:08.828Z,8.13
2018-03-07T11:48:36.575Z,8.43
2018-03-07T11:51:04.242Z,8.20
2018-03-07T11:53:32.494Z,8.13
2018-03-07T11:56:00.183Z,7.70
2018-03-07T11:58:27.893Z,8.17
2018-03-07T12:00:55.586Z,7.87
2018-03-07T12:03:24.028Z,6.83
2018-03-07T12:05:52.891Z,7.50
2018-03-07T12:08:20.730Z,8.13
2018-03-07T12:10:49.369Z,6.43
2018-03-07T12:13:18.055Z,6.50
2018-03-07T12:15:45.689Z,6.40
2018-03-07T12:18:13.387Z,6.10
2018-03-07T12:20:41.105Z,5.70
2018-03-07T12:23:09.429Z,4.73
2018-03-07T12:25:40.463Z,5.73
2018-03-07T12:28:08.109Z,6.07
2018-03-07T12:30:37.738Z,5.50
2018-03-07T12:33:06.239Z,6.63
2018-03-07T12:35:33.842Z,6.13
2018-03-07T12:38:01.546Z,6.40
2018-03-07T12:40:29.923Z,5.43
2018-03-07T12:42:57.851Z,5.77
2018-03-07T12:45:26.267Z,5.13
2018-03-07T12:47:53.967Z,5.60
2018-03-07T12:50:22.171Z,5.23
2018-03-07T12:52:50.631Z,5.53
2018-03-07T12:55:18.362Z,5.77
2018-03-07T12:57:47.489Z,5.40
2018-03-07T13:00:15.178Z,5.20
2018-03-07T13:02:43.743Z,4.63
2018-03-07T13:05:13.231Z,5.20
2018-03-07T13:07:41.687Z,4.80
2018-03-07T13:10:10.266Z,4.33
2018-03-07T13:12:37.998Z,4.27
2018-03-07T13:15:06.418Z,4.93
2018-03-07T13:17:34.764Z,5.77
2018-03-07T13:20:03.011Z,6.23
2018-03-07T13:22:31.451Z,4.90
2018-03-07T13:24:59.189Z,5.20
2018-03-07T13:27:27.685Z,5.03
2018-03-07T13:29:56.196Z,5.20
2018-03-07T13:32:23.953Z,4.77
2018-03-07T13:34:52.401Z,4.73
2018-03-07T13:37:20.933Z,6.20
2018-03-07T13:39:49.354Z,5.40
2018-03-07T13:49:22.149Z,4.37
2018-03-07T13:51:55.433Z,4.60
2018-03-07T13:54:29.077Z,4.00
2018-03-07T13:57:00.697Z,4.60
2018-03-07T13:59:39.076Z,4.80
2018-03-07T14:02:34.344Z,4.27
2018-03-07T14:16:28.777Z,3.67
2018-03-07T14:19:05.945Z,3.83
2018-03-07T14:24:50.654Z,4.10
2018-03-07T14:27:23.203Z,3.77
2018-03-07T14:30:04.728Z,3.60
2018-03-07T14:32:39.402Z,3.17
2018-03-07T14:40:56.778Z,3.55
2018-03-07T14:43:27.056Z,3.15
2018-03-07T14:48:44.075Z,2.90
2018-03-07T14:51:14.131Z,2.40
2018-03-07T14:53:52.335Z,2.73
2018-03-07T14:56:26.041Z,2.23
2018-03-07T14:58:59.300Z,2.40
2018-03-07T15:01:31.775Z,2.30
2018-03-07T15:04:01.436Z,2.00
2018-03-07T15:06:40.129Z,2.00
2018-03-07T15:09:18.473Z,1.50
2018-03-07T15:11:54.594Z,1.50
2018-03-07T15:14:31.174Z,1.00
2018-03-07T15:19:40.420Z,1.07
2018-03-07T15:22:10.171Z,0.80
2018-03-07T15:24:39.466Z,0.90
2018-03-07T15:27:22.675Z,0.70
2018-03-07T15:29:52.524Z,0.83
2018-03-07T15:32:29.269Z,0.60
2018-03-07T15:34:59.134Z,1.03
2018-03-07T15:37:29.092Z,4.60
2018-03-07T15:40:03.691Z,2.07
2018-03-07T15:42:34.434Z,1.00
2018-03-07T15:45:10.196Z,0.93
2018-03-07T15:47:39.977Z,1.20
2018-03-07T15:50:13.581Z,1.23
2018-03-07T15:52:45.276Z,1.60
2018-03-07T15:55:14.788Z,41.23
2018-03-07T15:57:55.076Z,1.60
2018-03-07T16:00:27.534Z,1.13
2018-03-07T16:03:01.857Z,0.80
2018-03-07T16:05:35.934Z,1.20
2018-03-07T16:08:06.083Z,0.90
2018-03-07T16:10:34.333Z,1.27
2018-03-07T16:13:04.182Z,1.13
2018-03-07T16:15:37.134Z,1.47
2018-03-07T16:18:12.010Z,1.30
2018-03-07T16:20:45.644Z,1.03
2018-03-07T16:29:13.860Z,1.40
2018-03-07T16:31:42.425Z,1.00
2018-03-07T16:34:11.083Z,0.80
2018-03-07T16:36:38.696Z,1.10
2018-03-07T16:39:06.309Z,0.90
2018-03-07T16:41:33.907Z,0.90
2018-03-07T16:44:01.611Z,1.33
2018-03-07T16:46:29.228Z,1.27
2018-03-07T16:48:56.871Z,0.93
2018-03-07T16:51:24.612Z,1.10
2018-03-07T16:53:52.339Z,1.27
2018-03-07T16:56:19.965Z,1.40
2018-03-07T16:58:47.598Z,1.73
2018-03-07T17:01:15.211Z,1.30
2018-03-07T17:03:42.811Z,1.33
2018-03-07T17:06:10.478Z,1.00
2018-03-07T17:08:38.964Z,1.10
2018-03-07T17:11:06.647Z,1.10
2018-03-07T17:13:35.014Z,0.70
2018-03-07T17:16:02.615Z,1.20
2018-03-07T17:18:30.278Z,0.97
2018-03-07T17:20:57.893Z,1.10
2018-03-07T17:23:25.532Z,0.63
2018-03-07T17:25:53.868Z,1.40
2018-03-07T17:28:21.487Z,1.23
2018-03-07T17:30:49.155Z,1.00
2018-03-07T17:33:17.559Z,0.60
2018-03-07T17:35:45.196Z,1.07
2018-03-07T17:38:13.569Z,1.70
2018-03-07T17:40:41.121Z,1.33
2018-03-07T17:43:08.641Z,0.90
2018-03-07T17:45:36.296Z,1.30
2018-03-07T17:48:03.908Z,0.90
2018-03-07T17:50:32.339Z,1.00
2018-03-07T17:52:59.982Z,0.83
2018-03-07T17:55:28.570Z,1.30
2018-03-07T17:57:57.048Z,1.00
2018-03-07T18:00:24.704Z,1.03
2018-03-07T18:02:52.315Z,1.20
2018-03-07T18:05:20.720Z,1.20
2018-03-07T18:07:49.125Z,1.00
2018-03-07T18:10:16.761Z,1.00
2018-03-07T18:12:45.179Z,1.20
2018-03-07T18:15:12.804Z,1.20
2018-03-07T18:17:41.214Z,1.57
2018-03-07T18:20:08.840Z,1.63
2018-03-07T18:22:36.450Z,1.20
2018-03-07T18:25:04.077Z,1.40
2018-03-07T18:27:32.507Z,1.67
2018-03-07T18:30:00.201Z,1.63
2018-03-07T18:32:27.818Z,2.07
2018-03-07T18:34:55.445Z,1.90
2018-03-07T18:37:23.101Z,1.67
2018-03-07T18:39:50.699Z,1.50
2018-03-07T18:42:18.399Z,2.00
2018-03-07T18:44:46.744Z,2.20
2018-03-07T18:47:15.380Z,1.83
2018-03-07T18:49:42.976Z,1.90
2018-03-07T18:52:11.541Z,1.83
2018-03-07T18:54:40.468Z,1.90
2018-03-07T18:57:08.083Z,1.87
2018-03-07T18:59:37.049Z,1.90
2018-03-07T19:02:04.917Z,6.87
2018-03-07T19:04:38.628Z,2.00
2018-03-07T19:07:06.491Z,2.33
2018-03-07T19:09:34.213Z,1.60
2018-03-07T19:12:01.916Z,1.70
2018-03-07T19:14:30.581Z,1.70
2018-03-07T19:16:58.532Z,1.83
2018-03-07T19:19:26.313Z,1.50
2018-03-07T19:22:12.726Z,2.20
2018-03-07T19:24:43.276Z,2.13
2018-03-07T19:27:11.947Z,2.07
2018-03-07T19:29:44.757Z,2.23
2018-03-07T19:32:13.319Z,1.83
2018-03-07T19:34:41.273Z,2.10
2018-03-07T19:37:11.077Z,1.50
2018-03-07T19:39:39.703Z,2.03
2018-03-07T19:42:08.063Z,1.80
2018-03-07T19:44:36.881Z,2.27
2018-03-07T19:47:06.051Z,3.20
2018-03-07T19:49:40.296Z,2.57
2018-03-07T19:52:09.173Z,2.07
2018-03-07T19:54:38.174Z,2.83
2018-03-07T19:57:06.853Z,2.47
2018-03-07T19:59:37.776Z,2.60
2018-03-07T20:02:07.517Z,2.60
2018-03-07T20:04:36.389Z,2.37
2018-03-07T20:07:04.436Z,3.40
2018-03-07T20:09:40.879Z,5.00
2018-03-07T20:12:09.965Z,4.30
2018-03-07T20:14:38.797Z,9.60
2018-03-07T20:17:11.606Z,4.30
2018-03-07T20:19:42.069Z,4.73
2018-03-07T20:22:16.241Z,6.53
2018-03-07T20:24:47.026Z,5.10
2018-03-07T20:27:18.386Z,4.43
2018-03-07T20:29:51.972Z,3.53
2018-03-07T20:32:23.887Z,3.33
2018-03-07T20:34:53.872Z,2.70
2018-03-07T20:37:29.398Z,3.20
2018-03-07T20:40:01.236Z,3.57
2018-03-07T20:42:32.378Z,3.20
2018-03-07T20:45:02.085Z,2.47
2018-03-07T20:47:34.622Z,2.60
2018-03-07T20:50:02.510Z,2.47
2018-03-07T20:52:30.756Z,2.60
2018-03-07T20:55:00.376Z,6.27
2018-03-07T20:57:42.431Z,3.67
2018-03-07T21:00:11.016Z,2.07
2018-03-07T21:02:39.098Z,2.33
2018-03-07T21:05:09.329Z,2.00
2018-03-07T21:07:37.124Z,2.20
2018-03-07T21:10:05.587Z,2.33
2018-03-07T21:12:33.953Z,2.30
2018-03-07T21:15:02.693Z,1.90
2018-03-07T21:17:31.521Z,2.10
2018-03-07T21:20:00.655Z,2.23
2018-03-07T21:22:28.515Z,2.07
2018-03-07T21:24:56.654Z,1.80
2018-03-07T21:27:24.662Z,2.17
2018-03-07T21:29:52.501Z,2.47
2018-03-07T21:32:20.978Z,2.27
2018-03-07T21:34:48.875Z,2.00
2018-03-07T21:37:16.694Z,2.70
2018-03-07T21:39:45.843Z,2.20
2018-03-07T21:42:14.314Z,2.83
2018-03-07T21:44:42.454Z,2.90
2018-03-07T21:47:11.628Z,2.17
2018-03-07T21:49:40.042Z,2.70
2018-03-07T21:52:07.780Z,2.33
2018-03-07T21:54:35.606Z,2.27
2018-03-07T21:57:03.880Z,2.63
2018-03-07T21:59:31.572Z,2.87
2018-03-07T22:01:59.285Z,2.33
2018-03-07T22:04:26.999Z,2.27
2018-03-07T22:06:54.644Z,2.40
2018-03-07T22:09:22.524Z,2.50
2018-03-07T22:11:50.299Z,2.17
2018-03-07T22:14:18.018Z,2.27
2018-03-07T22:16:45.633Z,2.27
2018-03-07T22:19:13.415Z,2.37
2018-03-07T22:21:41.202Z,2.47
2018-03-07T22:24:09.896Z,2.13
2018-03-07T22:26:38.479Z,1.93
2018-03-07T22:29:06.904Z,2.37
2018-03-07T22:31:34.580Z,1.90
2018-03-07T22:34:02.597Z,2.27
2018-03-07T22:36:30.540Z,2.00
2018-03-07T22:38:58.282Z,2.00
2018-03-07T22:41:26.030Z,1.70
2018-03-07T22:43:53.598Z,2.20
2018-03-07T22:46:21.632Z,1.63
2018-03-07T22:48:49.537Z,2.00
2018-03-07T22:51:18.049Z,1.80
2018-03-07T22:53:46.033Z,2.00
2018-03-07T22:56:13.796Z,2.00
2018-03-07T22:58:42.159Z,2.00
2018-03-07T23:01:09.936Z,2.10
2018-03-07T23:03:37.813Z,2.03
2018-03-07T23:06:06.242Z,2.00
2018-03-07T23:08:33.970Z,1.83
2018-03-07T23:11:01.815Z,2.07
2018-03-07T23:13:30.311Z,1.70
2018-03-07T23:15:58.046Z,2.20
2018-03-07T23:18:25.953Z,2.10
2018-03-07T23:20:53.723Z,2.03
2018-03-07T23:23:21.455Z,2.40
2018-03-07T23:25:49.224Z,2.27
2018-03-07T23:28:17.693Z,1.57
2018-03-07T23:30:45.320Z,2.10
2018-03-07T23:33:12.950Z,2.20
2018-03-07T23:35:40.709Z,2.00
2018-03-07T23:38:09.228Z,2.50
2018-03-07T23:40:36.939Z,2.10
2018-03-07T23:43:05.356Z,2.20
2018-03-07T23:45:33.035Z,1.80
2018-03-07T23:48:00.681Z,1.90
2018-03-07T23:50:28.344Z,1.80
2018-03-07T23:52:56.061Z,1.63
2018-03-07T23:55:23.638Z,1.70
2018-03-07T23:57:51.267Z,1.50
